Southwest Georgia Regional Airport Albany US
ICAO: KABY
IATA: ABY
Category: Medium
Scheduled Services: Yes

Elevation: 197 ft
TransAlt. 18000 ft.

Airport Communications:
ATIS:133.05
JACKSONVILLE CNTR:125.75
CTAF:120.25
GND:121.9
MACON RDO:122.6
TWR:120.25
UNICOM:122.95

KABY Zoom In..

If you have problems with the map follow the link
https://www.worldairports.se/pages/airport.php?
ICAO=KABY

Runways:

(A) RW 04 length 6601 ft width 148 ft
ILS 108.50 / hdg 44

(B) RW 16 length 5219 ft width 148 ft
---- / hdg 164

(C) RW 22 length 6601 ft width 148 ft
---- / hdg 224

(D) RW 34 length 5219 ft width 148 ft
---- / hdg 344

Location; KABY
Day. 14 / Time. 03.53 Zulu
* Altimeter: 29.80
* Temperature: 08° c. 46.4°f.
* Wind from: 140° Speed 05 kn.
Dewpoint: 08° c.
Visibility: 6 Statute Miles.
Clouds: Broken 2200 ft.
Clouds: Broken 2900 ft.
Clouds: Overcast 3400 ft.
Conditions: Light Rain.Conditions: Mist.

KABY 140353Z 14005KT 6SM -RA BR BKN022 BKN029 OVC034 08/08 A2980 RMK AO2 SLP091 P0031 T00830078


Wind From 140°
Speed 05 kn.

 
 
jpsmedia worldairports.se 2019   terms of use